createdAt,value
2023-02-24T00:00:38.420Z,100603.13
2023-02-24T00:03:11.879Z,100600.09
2023-02-24T00:05:45.892Z,100594.46
2023-02-24T00:08:18.666Z,100589.96
2023-02-24T00:10:50.400Z,100584.60
2023-02-24T00:13:23.006Z,100583.45
2023-02-24T00:16:03.503Z,100575.57
2023-02-24T00:18:34.313Z,100574.38
2023-02-24T00:21:13.382Z,100569.65
2023-02-24T00:23:44.070Z,100562.27
2023-02-24T00:26:16.902Z,100554.45
2023-02-24T00:28:47.731Z,100557.46
2023-02-24T00:31:19.451Z,100553.80
2023-02-24T00:33:50.274Z,100547.65
2023-02-24T00:36:26.922Z,100543.48
2023-02-24T00:38:58.953Z,100537.80
2023-02-24T00:41:32.157Z,100527.66
2023-02-24T00:44:08.430Z,100525.97
2023-02-24T00:46:43.042Z,100519.70
2023-02-24T00:49:17.614Z,100514.86
2023-02-24T00:51:49.255Z,100506.47
2023-02-24T00:54:19.511Z,100501.48
2023-02-24T00:56:49.614Z,100494.95
2023-02-24T00:59:19.142Z,100488.22
2023-02-24T01:01:51.231Z,100483.90
2023-02-24T01:04:21.700Z,100476.77
2023-02-24T01:07:01.150Z,100470.14
2023-02-24T01:09:33.708Z,100461.39
2023-02-24T01:12:31.348Z,100454.25
2023-02-24T01:15:04.292Z,100451.06
2023-02-24T01:17:38.562Z,100447.47
2023-02-24T01:20:18.470Z,100440.81
2023-02-24T01:22:50.777Z,100436.42
2023-02-24T01:25:23.755Z,100432.69
2023-02-24T01:27:54.560Z,100430.55
2023-02-24T01:30:23.818Z,100426.46
2023-02-24T01:32:55.050Z,100419.95
2023-02-24T01:35:26.608Z,100417.39
2023-02-24T01:37:56.556Z,100412.89
2023-02-24T01:40:28.124Z,100407.37
2023-02-24T01:42:57.576Z,100406.48
2023-02-24T01:45:30.581Z,100401.67
2023-02-24T02:00:49.061Z,100382.48
2023-02-24T02:03:31.858Z,100373.05
2023-02-24T02:06:08.521Z,100366.81
2023-02-24T02:08:43.437Z,100362.35
2023-02-24T02:11:23.600Z,100363.16
2023-02-24T02:13:59.955Z,100362.33
2023-02-24T02:16:43.815Z,100352.86
2023-02-24T02:19:43.520Z,100349.96
2023-02-24T02:22:21.277Z,100344.70
2023-02-24T02:25:04.674Z,100345.30
2023-02-24T02:27:50.387Z,100341.77
2023-02-24T02:30:38.486Z,100337.63
2023-02-24T02:33:32.714Z,100339.59
2023-02-24T02:36:39.277Z,100334.58
2023-02-24T02:39:29.868Z,100332.08
2023-02-24T02:42:21.635Z,100324.82
2023-02-24T02:45:06.478Z,100319.56
2023-02-24T02:47:43.753Z,100315.91
2023-02-24T02:50:24.939Z,100311.33
2023-02-24T02:53:05.321Z,100305.29
2023-02-24T02:55:43.392Z,100300.18
2023-02-24T02:58:21.477Z,100295.80
2023-02-24T03:01:02.580Z,100288.30
2023-02-24T03:03:49.731Z,100283.46
2023-02-24T03:06:26.944Z,100280.84
2023-02-24T03:09:12.910Z,100277.61
2023-02-24T03:11:43.688Z,100269.19
2023-02-24T03:14:17.385Z,100269.98
2023-02-24T03:16:47.856Z,100262.59
2023-02-24T03:19:20.887Z,100258.55
2023-02-24T03:22:16.488Z,100251.16
2023-02-24T03:24:46.723Z,100244.95
2023-02-24T03:27:43.582Z,100241.12
2023-02-24T03:30:17.933Z,100234.11
2023-02-24T03:33:19.269Z,100231.71
2023-02-24T03:35:52.424Z,100228.10
2023-02-24T03:38:25.470Z,100221.55
2023-02-24T03:40:56.652Z,100219.11
2023-02-24T03:43:33.403Z,100217.23
2023-02-24T03:46:02.356Z,100212.17
2023-02-24T03:48:40.274Z,100206.87
2023-02-24T03:51:16.658Z,100202.48
2023-02-24T03:54:20.825Z,100200.52
2023-02-24T03:57:03.190Z,100196.42
2023-02-24T03:59:53.848Z,100185.54
2023-02-24T04:02:25.860Z,100170.36
2023-02-24T04:05:11.930Z,100166.29
2023-02-24T04:07:58.294Z,100163.83
2023-02-24T04:10:35.555Z,100166.42
2023-02-24T04:13:36.061Z,100162.20
2023-02-24T04:16:19.165Z,100154.02
2023-02-24T04:18:50.559Z,100156.07
2023-02-24T04:21:21.051Z,100150.84
2023-02-24T04:23:52.252Z,100150.05
2023-02-24T04:26:23.109Z,100145.92
2023-02-24T04:28:53.053Z,100141.23
2023-02-24T04:31:24.840Z,100135.70
2023-02-24T04:33:56.203Z,100137.38
2023-02-24T04:36:34.798Z,100137.31
2023-02-24T04:39:06.174Z,100133.20
2023-02-24T04:41:38.346Z,100126.63
2023-02-24T04:44:08.522Z,100119.77
2023-02-24T04:46:38.193Z,100118.41
2023-02-24T04:49:08.282Z,100114.06
2023-02-24T04:51:43.103Z,100113.04
2023-02-24T04:54:20.376Z,100116.90
2023-02-24T04:56:53.014Z,100116.78
2023-02-24T04:59:23.703Z,100119.23
2023-02-24T05:01:53.935Z,100119.30
2023-02-24T05:04:24.857Z,100118.23
2023-02-24T05:06:58.152Z,100120.10
2023-02-24T05:09:31.335Z,100113.83
2023-02-24T05:12:01.203Z,100106.77
2023-02-24T05:14:32.193Z,100105.33
2023-02-24T05:17:04.246Z,100101.42
2023-02-24T05:19:53.835Z,100102.20
2023-02-24T05:22:23.703Z,100100.29
2023-02-24T05:24:58.354Z,100094.11
2023-02-24T05:27:31.338Z,100098.81
2023-02-24T05:30:00.761Z,100097.00
2023-02-24T05:32:30.166Z,100088.39
2023-02-24T05:35:02.226Z,100086.66
2023-02-24T05:37:36.136Z,100086.01
2023-02-24T05:40:06.660Z,100081.24
2023-02-24T05:42:37.658Z,100073.74
2023-02-24T05:45:08.241Z,100069.37
2023-02-24T05:47:41.716Z,100069.01
2023-02-24T05:50:12.668Z,100064.41
2023-02-24T05:52:49.276Z,100061.52
2023-02-24T05:55:20.312Z,100054.45
2023-02-24T05:57:51.627Z,100053.27
2023-02-24T06:00:26.705Z,100047.05
2023-02-24T06:03:10.179Z,100046.85
2023-02-24T06:05:40.208Z,100046.78
2023-02-24T06:08:12.817Z,100043.25
2023-02-24T06:10:43.360Z,100036.98
2023-02-24T06:13:13.782Z,100036.54
2023-02-24T06:15:51.037Z,100029.10
2023-02-24T06:18:22.643Z,100026.30
2023-02-24T06:20:52.872Z,100019.34
2023-02-24T06:23:22.110Z,100016.05
2023-02-24T06:25:58.638Z,100010.70
2023-02-24T06:28:30.870Z,100010.02
2023-02-24T06:31:08.072Z,100005.79
2023-02-24T06:33:39.188Z,100002.27
2023-02-24T06:36:10.009Z,99996.86
2023-02-24T06:38:44.684Z,99992.52
2023-02-24T06:41:14.582Z,99980.41
2023-02-24T06:43:49.134Z,99977.15
2023-02-24T06:46:20.174Z,99977.95
2023-02-24T06:48:49.736Z,99977.98
2023-02-24T06:51:19.614Z,99969.20
2023-02-24T06:53:51.405Z,99969.39
2023-02-24T06:56:21.692Z,99963.99
2023-02-24T06:58:52.624Z,99954.88
2023-02-24T07:01:27.114Z,99956.81
2023-02-24T07:04:08.407Z,99949.08
2023-02-24T07:06:40.103Z,99948.58
2023-02-24T07:09:12.831Z,99944.70
2023-02-24T07:11:52.633Z,99943.70
2023-02-24T07:14:26.307Z,99937.13
2023-02-24T07:16:59.103Z,99935.46
2023-02-24T07:19:34.657Z,99929.17
2023-02-24T07:22:08.746Z,99924.98
2023-02-24T07:24:40.367Z,99923.57
2023-02-24T07:27:13.319Z,99918.83
2023-02-24T07:29:43.597Z,99918.61
2023-02-24T07:32:13.437Z,99911.60
2023-02-24T07:34:43.478Z,99912.60
2023-02-24T07:37:13.673Z,99908.58
2023-02-24T07:39:43.944Z,99903.21
2023-02-24T07:42:14.765Z,99893.53
2023-02-24T07:44:50.089Z,99890.81
2023-02-24T07:47:23.458Z,99885.54
2023-02-24T07:49:53.255Z,99885.67
2023-02-24T07:52:23.598Z,99880.11
2023-02-24T07:54:55.818Z,99877.97
2023-02-24T07:57:29.886Z,99877.58
2023-02-24T08:00:00.805Z,99872.60
2023-02-24T08:02:41.955Z,99868.21
2023-02-24T08:05:13.625Z,99869.84
2023-02-24T08:07:51.086Z,99868.56
2023-02-24T08:10:36.344Z,99869.00
2023-02-24T08:13:16.146Z,99866.59
2023-02-24T08:15:57.476Z,99865.51
2023-02-24T08:18:29.300Z,99858.05
2023-02-24T08:21:06.457Z,99851.69
2023-02-24T08:23:45.426Z,99855.92
2023-02-24T08:26:18.299Z,99853.35
2023-02-24T08:28:53.809Z,99849.94
2023-02-24T08:31:23.969Z,99843.18
2023-02-24T08:33:57.564Z,99839.79
2023-02-24T08:36:27.015Z,99839.73
2023-02-24T08:39:00.613Z,99838.45
2023-02-24T08:41:45.522Z,99831.16
2023-02-24T08:44:20.489Z,99828.22
2023-02-24T08:46:51.273Z,99821.38
2023-02-24T08:49:21.039Z,99818.90
2023-02-24T08:51:54.388Z,99820.47
2023-02-24T08:54:32.590Z,99822.25
2023-02-24T08:57:08.613Z,99812.73
2023-02-24T08:59:38.842Z,99813.70
2023-02-24T09:02:20.607Z,99804.23
2023-02-24T09:04:57.051Z,99806.33
2023-02-24T09:07:29.833Z,99801.50
2023-02-24T09:09:59.670Z,99800.11
2023-02-24T09:12:31.553Z,99791.10
2023-02-24T09:15:05.225Z,99792.61
2023-02-24T09:17:50.567Z,99789.96
2023-02-24T09:20:30.584Z,99783.16
2023-02-24T09:23:09.796Z,99782.51
2023-02-24T09:25:50.617Z,99783.90
2023-02-24T09:28:28.279Z,99779.30
2023-02-24T09:31:01.461Z,99775.67
2023-02-24T09:33:39.656Z,99767.06
2023-02-24T09:36:20.795Z,99765.35
2023-02-24T09:39:03.817Z,99756.94
2023-02-24T09:42:18.329Z,99750.62
2023-02-24T09:44:55.499Z,99746.82
2023-02-24T09:47:49.845Z,99734.77
2023-02-24T09:50:51.190Z,99736.84
2023-02-24T09:53:19.792Z,99724.89
2023-02-24T09:56:08.463Z,99721.27
2023-02-24T09:58:44.070Z,99717.95
2023-02-24T10:01:26.948Z,99714.00
2023-02-24T10:04:23.468Z,99714.77
2023-02-24T10:07:25.962Z,99703.86
2023-02-24T10:10:20.201Z,99694.05
2023-02-24T10:13:16.045Z,99689.13
2023-02-24T10:15:57.855Z,99687.13
2023-02-24T10:18:31.090Z,99688.48
2023-02-24T10:21:31.080Z,99683.58
2023-02-24T10:24:35.051Z,99682.91
2023-02-24T10:27:24.613Z,99671.95
2023-02-24T10:30:21.762Z,99671.70
2023-02-24T10:32:55.377Z,99662.90
2023-02-24T10:35:26.605Z,99658.20
2023-02-24T10:38:06.142Z,99651.54
2023-02-24T10:41:06.974Z,99651.16
2023-02-24T10:43:46.358Z,99643.70
2023-02-24T10:46:42.015Z,99641.56
2023-02-24T10:49:20.332Z,99637.90
2023-02-24T10:51:53.337Z,99636.35
2023-02-24T10:55:05.649Z,99626.14
2023-02-24T10:57:59.134Z,99623.27
2023-02-24T11:01:18.653Z,99619.36
2023-02-24T11:04:20.550Z,99618.64
2023-02-24T11:06:53.339Z,99611.50
2023-02-24T11:09:29.699Z,99606.98
2023-02-24T11:12:26.515Z,99605.39
2023-02-24T11:15:16.923Z,99600.41
2023-02-24T11:17:51.495Z,99596.80
2023-02-24T11:20:48.617Z,99594.23
2023-02-24T11:23:26.710Z,99587.41
2023-02-24T11:26:01.633Z,99586.90
2023-02-24T11:28:53.987Z,99581.91
2023-02-24T11:31:23.962Z,99580.11
2023-02-24T11:34:07.179Z,99581.71
2023-02-24T11:37:21.994Z,99578.68
2023-02-24T11:40:01.879Z,99571.07
2023-02-24T11:42:42.610Z,99568.98
2023-02-24T11:45:35.160Z,99566.64
2023-02-24T11:48:15.899Z,99572.40
2023-02-24T11:50:48.868Z,99570.50
2023-02-24T11:53:24.834Z,99569.50
2023-02-24T11:56:06.055Z,99567.94
2023-02-24T11:58:42.404Z,99566.59
2023-02-24T12:01:58.761Z,99564.20
2023-02-24T12:04:42.148Z,99559.84
2023-02-24T12:07:24.109Z,99557.50
2023-02-24T12:10:17.947Z,99554.54
2023-02-24T12:12:50.962Z,99551.71
2023-02-24T12:15:27.009Z,99549.34
2023-02-24T12:18:13.758Z,99541.79
2023-02-24T12:21:15.996Z,99542.92
2023-02-24T12:23:47.145Z,99535.33
2023-02-24T12:26:56.237Z,99532.42
2023-02-24T12:30:06.076Z,99522.64
2023-02-24T12:33:02.422Z,99521.97
2023-02-24T12:36:14.927Z,99515.13
2023-02-24T12:39:16.785Z,99512.13
2023-02-24T12:41:54.910Z,99509.80
2023-02-24T12:44:52.790Z,99500.21
2023-02-24T12:47:33.892Z,99487.90
2023-02-24T12:50:23.997Z,99490.38
2023-02-24T12:52:54.597Z,99489.12
2023-02-24T12:55:45.471Z,99486.39
2023-02-24T12:58:18.765Z,99487.74
2023-02-24T13:00:55.531Z,99487.96
2023-02-24T13:03:29.630Z,99485.39
2023-02-24T13:06:30.908Z,99475.47
2023-02-24T13:09:30.370Z,99477.10
2023-02-24T13:12:05.054Z,99473.77
2023-02-24T13:14:38.592Z,99471.48
2023-02-24T13:17:19.296Z,99466.01
2023-02-24T13:19:49.667Z,99458.36
2023-02-24T13:22:26.291Z,99450.29
2023-02-24T13:24:57.440Z,99444.38
2023-02-24T13:27:32.388Z,99448.65
2023-02-24T13:30:14.985Z,99438.70
2023-02-24T13:32:49.436Z,99435.89
2023-02-24T13:35:21.740Z,99432.81
2023-02-24T13:37:55.384Z,99428.77
2023-02-24T13:40:27.861Z,99424.59
2023-02-24T13:43:00.709Z,99415.33
2023-02-24T13:45:31.864Z,99416.37
2023-02-24T13:48:29.855Z,99415.80
2023-02-24T13:51:17.778Z,99413.11
2023-02-24T13:54:25.847Z,99415.13
2023-02-24T13:57:12.096Z,99410.65
2023-02-24T14:00:35.665Z,99406.90
2023-02-24T14:03:13.681Z,99402.02
2023-02-24T14:05:44.305Z,99395.71
2023-02-24T14:08:22.988Z,99393.52
2023-02-24T14:10:56.736Z,99385.44
2023-02-24T14:13:30.225Z,99387.94
2023-02-24T14:16:08.752Z,99391.67
2023-02-24T14:18:41.246Z,99380.03
2023-02-24T14:21:24.487Z,99376.69
2023-02-24T14:24:11.574Z,99382.96
2023-02-24T14:26:46.727Z,99381.93
2023-02-24T14:29:22.370Z,99378.95
2023-02-24T14:31:54.142Z,99377.16
2023-02-24T14:34:25.605Z,99376.22
2023-02-24T14:37:08.700Z,99374.33
2023-02-24T14:40:07.543Z,99370.85
2023-02-24T14:42:53.261Z,99368.19
2023-02-24T14:45:29.300Z,99369.10
2023-02-24T14:47:59.149Z,99371.33
2023-02-24T14:50:31.865Z,99361.95
2023-02-24T14:53:07.300Z,99362.13
2023-02-24T14:55:41.554Z,99353.88
2023-02-24T14:58:20.971Z,99349.09
2023-02-24T15:00:54.958Z,99347.27
2023-02-24T15:03:32.248Z,99341.80
2023-02-24T15:06:08.423Z,99341.77
2023-02-24T15:08:44.851Z,99329.58
2023-02-24T15:11:21.929Z,99326.67
2023-02-24T15:14:03.085Z,99325.18
2023-02-24T15:16:42.692Z,99320.65
2023-02-24T15:19:28.853Z,99318.48
2023-02-24T15:21:59.473Z,99319.08
2023-02-24T15:24:33.968Z,99316.73
2023-02-24T15:27:21.102Z,99309.54
2023-02-24T15:30:29.514Z,99314.86
2023-02-24T15:33:18.508Z,99315.45
2023-02-24T15:35:58.894Z,99308.63
2023-02-24T15:38:33.359Z,99312.52
2023-02-24T15:41:04.876Z,99309.48
2023-02-24T15:43:35.899Z,99307.11
2023-02-24T15:46:34.436Z,99307.14
2023-02-24T15:49:05.470Z,99304.66
2023-02-24T15:51:39.539Z,99304.86
2023-02-24T15:54:22.519Z,99299.59
2023-02-24T15:56:51.531Z,99293.07
2023-02-24T15:59:23.060Z,99292.42
2023-02-24T16:01:53.281Z,99289.62
2023-02-24T16:04:27.220Z,99283.39
2023-02-24T16:06:57.978Z,99279.71
2023-02-24T16:09:38.261Z,99278.38
2023-02-24T16:12:20.742Z,99278.37
2023-02-24T16:14:55.372Z,99273.84
2023-02-24T16:17:33.322Z,99272.98
2023-02-24T16:20:09.849Z,99273.36
2023-02-24T16:22:41.504Z,99275.92
2023-02-24T16:25:18.438Z,99278.44
2023-02-24T16:27:51.318Z,99278.85
2023-02-24T16:30:22.732Z,99280.08
2023-02-24T16:32:58.674Z,99279.48
2023-02-24T16:35:28.401Z,99274.38
2023-02-24T16:38:01.565Z,99274.71
2023-02-24T16:40:34.303Z,99266.04
2023-02-24T16:43:07.411Z,99266.12
2023-02-24T16:45:39.286Z,99266.30
2023-02-24T16:48:20.302Z,99264.58
2023-02-24T16:50:50.560Z,99263.16
2023-02-24T16:53:23.918Z,99257.89
2023-02-24T16:55:53.982Z,99254.06
2023-02-24T16:58:25.626Z,99248.19
2023-02-24T17:00:57.805Z,99246.16
2023-02-24T17:03:34.532Z,99246.23
2023-02-24T17:06:08.073Z,99243.06
2023-02-24T17:08:42.282Z,99238.38
2023-02-24T17:11:18.048Z,99228.99
2023-02-24T17:13:47.852Z,99231.17
2023-02-24T17:16:22.295Z,99228.08
2023-02-24T17:18:52.192Z,99225.38
2023-02-24T17:21:21.676Z,99221.02
2023-02-24T17:23:52.325Z,99217.02
2023-02-24T17:26:22.387Z,99214.90
2023-02-24T17:28:53.244Z,99210.25
2023-02-24T17:31:23.624Z,99208.60
2023-02-24T17:33:58.833Z,99203.58
2023-02-24T17:36:29.717Z,99199.27
2023-02-24T17:39:05.875Z,99199.19
2023-02-24T17:41:37.728Z,99193.80
2023-02-24T17:44:07.399Z,99197.20
2023-02-24T17:46:38.658Z,99190.16
2023-02-24T17:49:09.721Z,99192.23
2023-02-24T17:51:40.438Z,99188.34
2023-02-24T17:54:13.181Z,99186.09
2023-02-24T17:56:46.250Z,99180.39
2023-02-24T17:59:15.318Z,99182.52
2023-02-24T18:01:47.572Z,99180.17
2023-02-24T18:04:21.776Z,99181.98
2023-02-24T18:06:51.209Z,99179.80
2023-02-24T18:09:25.778Z,99176.83
2023-02-24T18:12:02.563Z,99177.16
2023-02-24T18:14:41.031Z,99173.26
2023-02-24T18:17:14.020Z,99170.72
2023-02-24T18:19:43.641Z,99167.95
2023-02-24T18:22:14.182Z,99166.98
2023-02-24T18:24:45.400Z,99165.86
2023-02-24T18:27:14.712Z,99160.14
2023-02-24T18:29:49.140Z,99164.83
2023-02-24T18:32:20.298Z,99161.00
2023-02-24T18:34:54.886Z,99159.00
2023-02-24T18:37:29.116Z,99158.23
2023-02-24T18:40:02.056Z,99157.33
2023-02-24T18:42:44.298Z,99153.29
2023-02-24T18:45:15.737Z,99150.41
2023-02-24T18:47:47.361Z,99143.89
2023-02-24T18:50:25.607Z,99143.14
2023-02-24T18:52:55.793Z,99137.88
2023-02-24T18:55:30.621Z,99137.08
2023-02-24T18:58:11.566Z,99128.70
2023-02-24T19:00:43.895Z,99129.82
2023-02-24T19:03:14.786Z,99125.35
2023-02-24T19:05:46.752Z,99123.75
2023-02-24T19:08:19.349Z,99120.89
2023-02-24T19:13:53.989Z,99114.23
2023-02-24T19:16:23.793Z,99112.52
2023-02-24T19:18:58.861Z,99107.23
2023-02-24T19:21:30.933Z,99109.69
2023-02-24T19:24:04.590Z,99102.16
2023-02-24T19:26:34.816Z,99097.95
2023-02-24T19:29:17.820Z,99096.48
2023-02-24T19:31:53.576Z,99090.02
2023-02-24T19:34:23.372Z,99084.40
2023-02-24T19:36:54.289Z,99083.23
2023-02-24T19:39:24.406Z,99079.21
2023-02-24T19:41:54.940Z,99077.63
2023-02-24T19:44:24.487Z,99072.91
2023-02-24T19:46:53.896Z,99069.63
2023-02-24T19:49:23.499Z,99064.66
2023-02-24T19:52:02.630Z,99061.38
2023-02-24T19:54:31.997Z,99057.20
2023-02-24T19:57:03.078Z,99052.54
2023-02-24T19:59:42.236Z,99053.22
2023-02-24T20:02:13.452Z,99049.30
2023-02-24T20:04:45.909Z,99045.52
2023-02-24T20:07:23.415Z,99047.13
2023-02-24T20:09:55.803Z,99046.41
2023-02-24T20:12:27.424Z,99038.53
2023-02-24T20:14:56.671Z,99037.67
2023-02-24T20:17:41.404Z,99033.98
2023-02-24T20:20:33.080Z,99032.42
2023-02-24T20:23:03.696Z,99032.52
2023-02-24T20:25:33.491Z,99035.35
2023-02-24T20:28:02.890Z,99031.42
2023-02-24T20:30:32.133Z,99027.39
2023-02-24T20:33:02.809Z,99028.58
2023-02-24T20:35:40.998Z,99023.11
2023-02-24T20:38:15.186Z,99017.55
2023-02-24T20:40:47.268Z,99015.59
2023-02-24T20:43:17.467Z,99009.30
2023-02-24T20:45:49.668Z,99009.14
2023-02-24T20:48:20.001Z,99004.47
2023-02-24T20:50:49.098Z,99007.27
2023-02-24T20:53:18.843Z,99001.76
2023-02-24T20:56:03.708Z,98998.95
2023-02-24T20:58:32.968Z,98998.27
2023-02-24T21:01:02.870Z,98995.36
2023-02-24T21:03:33.426Z,98994.61
2023-02-24T21:06:09.843Z,98993.20
2023-02-24T21:08:44.503Z,98987.61
2023-02-24T21:11:15.318Z,98985.77
2023-02-24T21:14:19.078Z,98990.77
2023-02-24T21:19:47.114Z,98981.73
2023-02-24T21:22:34.337Z,98979.67
2023-02-24T21:25:03.995Z,98977.71
2023-02-24T21:27:33.966Z,98972.73
2023-02-24T21:30:08.621Z,98971.23
2023-02-24T21:32:39.984Z,98965.04
2023-02-24T21:35:15.087Z,98962.59
2023-02-24T21:37:46.172Z,98957.27
2023-02-24T21:40:18.585Z,98947.25
2023-02-24T21:42:48.764Z,98944.59
2023-02-24T21:45:20.028Z,98944.59
2023-02-24T21:47:49.598Z,98946.83
2023-02-24T21:50:19.139Z,98940.38
2023-02-24T21:52:49.622Z,98938.77
2023-02-24T21:55:21.311Z,98937.02
2023-02-24T21:57:53.281Z,98934.40
2023-02-24T22:00:24.634Z,98931.08
2023-02-24T22:02:57.033Z,98929.98
2023-02-24T22:05:27.725Z,98925.48
2023-02-24T22:07:58.862Z,98928.69
2023-02-24T22:10:28.602Z,98927.04
2023-02-24T22:12:57.912Z,98920.35
2023-02-24T22:15:28.986Z,98917.61
2023-02-24T22:17:59.784Z,98914.05
2023-02-24T22:20:29.316Z,98909.88
2023-02-24T22:22:59.028Z,98911.48
2023-02-24T22:25:28.682Z,98909.33
2023-02-24T22:28:00.831Z,98902.65
2023-02-24T22:30:31.974Z,98904.34
2023-02-24T22:33:01.574Z,98900.42
2023-02-24T22:35:36.330Z,98894.06
2023-02-24T22:38:05.770Z,98894.84
2023-02-24T22:40:42.192Z,98891.95
2023-02-24T22:43:15.010Z,98889.27
2023-02-24T22:45:44.163Z,98884.62
2023-02-24T22:48:16.515Z,98885.46
2023-02-24T22:50:47.330Z,98886.35
2023-02-24T22:53:17.232Z,98877.16
2023-02-24T22:55:49.112Z,98875.63
2023-02-24T22:58:19.180Z,98875.19
2023-02-24T23:00:49.070Z,98874.66
2023-02-24T23:03:23.127Z,98872.42
2023-02-24T23:06:00.905Z,98865.66
2023-02-24T23:08:32.569Z,98865.00
2023-02-24T23:15:47.205Z,98851.69
2023-02-24T23:18:18.059Z,98854.39
2023-02-24T23:22:25.748Z,98850.45
2023-02-24T23:24:54.881Z,98844.45
2023-02-24T23:27:23.759Z,98846.37
2023-02-24T23:29:52.447Z,98846.17
2023-02-24T23:32:21.512Z,98842.90
2023-02-24T23:34:54.215Z,98842.36
2023-02-24T23:37:22.995Z,98834.95
2023-02-24T23:39:52.439Z,98827.63
2023-02-24T23:42:21.992Z,98823.58
2023-02-24T23:44:51.328Z,98814.39
2023-02-24T23:47:26.268Z,98806.50
2023-02-24T23:49:55.828Z,98802.30
2023-02-24T23:52:24.796Z,98795.63
2023-02-24T23:54:54.428Z,98804.69
2023-02-24T23:57:23.191Z,98797.76
2023-02-24T23:59:53.569Z,98795.33
